sensor_id;sensor_type;location;lat;lon;timestamp;temperature;humidity
30473;DHT22;17263;48.160;11.452;2023-03-20T00:01:56;9.10;99.90
30473;DHT22;17263;48.160;11.452;2023-03-20T00:04:22;9.10;99.90
30473;DHT22;17263;48.160;11.452;2023-03-20T00:06:48;9.10;99.90
30473;DHT22;17263;48.160;11.452;2023-03-20T00:09:14;9.10;99.90
30473;DHT22;17263;48.160;11.452;2023-03-20T00:11:46;9.10;99.90
30473;DHT22;17263;48.160;11.452;2023-03-20T00:14:14;9.10;99.90
30473;DHT22;17263;48.160;11.452;2023-03-20T00:16:43;9.10;99.90
30473;DHT22;17263;48.160;11.452;2023-03-20T00:19:16;9.00;99.90
30473;DHT22;17263;48.160;11.452;2023-03-20T00:21:43;9.00;99.90
30473;DHT22;17263;48.160;11.452;2023-03-20T00:24:11;9.00;99.90
30473;DHT22;17263;48.160;11.452;2023-03-20T00:26:37;8.90;99.90
30473;DHT22;17263;48.160;11.452;2023-03-20T00:29:05;8.90;99.90
30473;DHT22;17263;48.160;11.452;2023-03-20T00:31:37;8.90;99.90
30473;DHT22;17263;48.160;11.452;2023-03-20T00:34:12;8.90;99.90
30473;DHT22;17263;48.160;11.452;2023-03-20T00:36:39;8.90;99.90
30473;DHT22;17263;48.160;11.452;2023-03-20T00:39:05;8.90;99.90
30473;DHT22;17263;48.160;11.452;2023-03-20T00:46:53;8.90;99.90
30473;DHT22;17263;48.160;11.452;2023-03-20T00:49:33;8.90;99.90
30473;DHT22;17263;48.160;11.452;2023-03-20T00:52:00;8.90;99.90
30473;DHT22;17263;48.160;11.452;2023-03-20T00:54:27;8.90;99.90
30473;DHT22;17263;48.160;11.452;2023-03-20T00:59:35;8.80;99.90
30473;DHT22;17263;48.160;11.452;2023-03-20T01:02:02;8.90;99.90
30473;DHT22;17263;48.160;11.452;2023-03-20T01:04:38;8.80;99.90
30473;DHT22;17263;48.160;11.452;2023-03-20T01:07:05;8.80;99.90
30473;DHT22;17263;48.160;11.452;2023-03-20T01:09:32;8.80;99.90
30473;DHT22;17263;48.160;11.452;2023-03-20T01:12:02;8.80;99.90
30473;DHT22;17263;48.160;11.452;2023-03-20T01:14:28;8.80;99.90
30473;DHT22;17263;48.160;11.452;2023-03-20T01:16:54;8.80;99.90
30473;DHT22;17263;48.160;11.452;2023-03-20T01:19:20;8.80;99.90
30473;DHT22;17263;48.160;11.452;2023-03-20T01:21:46;8.80;99.90
30473;DHT22;17263;48.160;11.452;2023-03-20T01:24:12;8.80;99.90
30473;DHT22;17263;48.160;11.452;2023-03-20T01:26:40;8.80;99.90
30473;DHT22;17263;48.160;11.452;2023-03-20T01:31:44;8.80;99.90
30473;DHT22;17263;48.160;11.452;2023-03-20T01:34:11;8.80;99.90
30473;DHT22;17263;48.160;11.452;2023-03-20T01:36:37;8.80;99.90
30473;DHT22;17263;48.160;11.452;2023-03-20T01:39:04;8.80;99.90
30473;DHT22;17263;48.160;11.452;2023-03-20T01:41:30;8.80;99.90
30473;DHT22;17263;48.160;11.452;2023-03-20T01:43:57;8.80;99.90
30473;DHT22;17263;48.160;11.452;2023-03-20T01:46:28;8.80;99.90
30473;DHT22;17263;48.160;11.452;2023-03-20T01:49:03;8.80;99.90
30473;DHT22;17263;48.160;11.452;2023-03-20T01:51:31;8.80;99.90
30473;DHT22;17263;48.160;11.452;2023-03-20T01:54:14;8.80;99.90
30473;DHT22;17263;48.160;11.452;2023-03-20T01:56:48;8.70;99.90
30473;DHT22;17263;48.160;11.452;2023-03-20T01:59:19;8.70;99.90
30473;DHT22;17263;48.160;11.452;2023-03-20T02:01:46;8.70;99.90
30473;DHT22;17263;48.160;11.452;2023-03-20T02:04:13;8.70;99.90
30473;DHT22;17263;48.160;11.452;2023-03-20T02:06:40;8.70;99.90
30473;DHT22;17263;48.160;11.452;2023-03-20T02:09:07;8.70;99.90
30473;DHT22;17263;48.160;11.452;2023-03-20T02:11:33;8.70;99.90
30473;DHT22;17263;48.160;11.452;2023-03-20T02:14:00;8.70;99.90
30473;DHT22;17263;48.160;11.452;2023-03-20T02:16:27;8.70;99.90
30473;DHT22;17263;48.160;11.452;2023-03-20T02:18:55;8.70;99.90
30473;DHT22;17263;48.160;11.452;2023-03-20T02:35:42;8.70;99.90
30473;DHT22;17263;48.160;11.452;2023-03-20T02:44:03;8.70;99.90
30473;DHT22;17263;48.160;11.452;2023-03-20T02:46:38;8.70;99.90
30473;DHT22;17263;48.160;11.452;2023-03-20T02:49:20;8.70;99.90
30473;DHT22;17263;48.160;11.452;2023-03-20T02:52:12;8.70;99.90
30473;DHT22;17263;48.160;11.452;2023-03-20T02:54:53;8.70;99.90
30473;DHT22;17263;48.160;11.452;2023-03-20T03:03:28;8.70;99.90
30473;DHT22;17263;48.160;11.452;2023-03-20T03:06:16;8.70;99.90
30473;DHT22;17263;48.160;11.452;2023-03-20T03:08:48;8.70;99.90
30473;DHT22;17263;48.160;11.452;2023-03-20T03:11:15;8.70;99.90
30473;DHT22;17263;48.160;11.452;2023-03-20T03:13:47;8.70;99.90
30473;DHT22;17263;48.160;11.452;2023-03-20T03:16:18;8.60;99.90
30473;DHT22;17263;48.160;11.452;2023-03-20T03:18:46;8.60;99.90
30473;DHT22;17263;48.160;11.452;2023-03-20T03:21:16;8.60;99.90
30473;DHT22;17263;48.160;11.452;2023-03-20T03:23:47;8.70;99.90
30473;DHT22;17263;48.160;11.452;2023-03-20T03:26:41;8.70;99.90
30473;DHT22;17263;48.160;11.452;2023-03-20T03:29:14;8.70;99.90
30473;DHT22;17263;48.160;11.452;2023-03-20T03:31:43;8.70;99.90
30473;DHT22;17263;48.160;11.452;2023-03-20T03:34:14;8.70;99.90
30473;DHT22;17263;48.160;11.452;2023-03-20T03:39:35;8.70;99.90
30473;DHT22;17263;48.160;11.452;2023-03-20T03:45:01;8.70;99.90
30473;DHT22;17263;48.160;11.452;2023-03-20T03:50:24;8.70;99.90
30473;DHT22;17263;48.160;11.452;2023-03-20T03:52:53;8.70;99.90
30473;DHT22;17263;48.160;11.452;2023-03-20T03:55:24;8.70;99.90
30473;DHT22;17263;48.160;11.452;2023-03-20T03:57:58;8.70;99.90
30473;DHT22;17263;48.160;11.452;2023-03-20T04:00:26;8.70;99.90
30473;DHT22;17263;48.160;11.452;2023-03-20T04:02:55;8.70;99.90
30473;DHT22;17263;48.160;11.452;2023-03-20T04:05:24;8.70;99.90
30473;DHT22;17263;48.160;11.452;2023-03-20T04:07:54;8.70;99.90
30473;DHT22;17263;48.160;11.452;2023-03-20T04:10:21;8.70;99.90
30473;DHT22;17263;48.160;11.452;2023-03-20T04:12:47;8.70;99.90
30473;DHT22;17263;48.160;11.452;2023-03-20T04:15:14;8.70;99.90
30473;DHT22;17263;48.160;11.452;2023-03-20T04:17:41;8.70;99.90
30473;DHT22;17263;48.160;11.452;2023-03-20T04:20:09;8.70;99.90
30473;DHT22;17263;48.160;11.452;2023-03-20T04:22:35;8.70;99.90
30473;DHT22;17263;48.160;11.452;2023-03-20T04:25:03;8.70;99.90
30473;DHT22;17263;48.160;11.452;2023-03-20T04:27:30;8.70;99.90
30473;DHT22;17263;48.160;11.452;2023-03-20T04:29:56;8.80;99.90
30473;DHT22;17263;48.160;11.452;2023-03-20T04:32:22;8.80;99.90
30473;DHT22;17263;48.160;11.452;2023-03-20T04:34:48;8.90;99.90
30473;DHT22;17263;48.160;11.452;2023-03-20T04:37:14;8.90;99.90
30473;DHT22;17263;48.160;11.452;2023-03-20T04:39:40;8.90;99.90
30473;DHT22;17263;48.160;11.452;2023-03-20T04:42:08;8.90;99.90
30473;DHT22;17263;48.160;11.452;2023-03-20T04:44:34;8.90;99.90
30473;DHT22;17263;48.160;11.452;2023-03-20T04:47:00;8.90;99.90
30473;DHT22;17263;48.160;11.452;2023-03-20T04:49:26;8.90;99.90
30473;DHT22;17263;48.160;11.452;2023-03-20T04:51:53;8.90;99.90
30473;DHT22;17263;48.160;11.452;2023-03-20T04:54:20;8.90;99.90
30473;DHT22;17263;48.160;11.452;2023-03-20T04:56:47;8.90;99.90
30473;DHT22;17263;48.160;11.452;2023-03-20T04:59:13;8.90;99.90
30473;DHT22;17263;48.160;11.452;2023-03-20T05:01:39;8.90;99.90
30473;DHT22;17263;48.160;11.452;2023-03-20T05:04:05;8.80;99.90
30473;DHT22;17263;48.160;11.452;2023-03-20T05:06:32;8.80;99.90
30473;DHT22;17263;48.160;11.452;2023-03-20T05:08:58;8.80;99.90
30473;DHT22;17263;48.160;11.452;2023-03-20T05:11:26;8.80;99.90
30473;DHT22;17263;48.160;11.452;2023-03-20T05:13:52;8.70;99.90
30473;DHT22;17263;48.160;11.452;2023-03-20T05:16:19;8.70;99.90
30473;DHT22;17263;48.160;11.452;2023-03-20T05:18:45;8.70;99.90
30473;DHT22;17263;48.160;11.452;2023-03-20T05:21:11;8.70;99.90
30473;DHT22;17263;48.160;11.452;2023-03-20T05:23:37;8.70;99.90
30473;DHT22;17263;48.160;11.452;2023-03-20T05:26:03;8.60;99.90
30473;DHT22;17263;48.160;11.452;2023-03-20T05:28:29;8.60;99.90
30473;DHT22;17263;48.160;11.452;2023-03-20T05:30:55;8.60;99.90
30473;DHT22;17263;48.160;11.452;2023-03-20T05:33:22;8.50;99.90
30473;DHT22;17263;48.160;11.452;2023-03-20T05:35:48;8.50;99.90
30473;DHT22;17263;48.160;11.452;2023-03-20T05:38:14;8.50;99.90
30473;DHT22;17263;48.160;11.452;2023-03-20T05:40:40;8.60;99.90
30473;DHT22;17263;48.160;11.452;2023-03-20T05:43:07;8.60;99.90
30473;DHT22;17263;48.160;11.452;2023-03-20T05:45:33;8.70;99.90
30473;DHT22;17263;48.160;11.452;2023-03-20T05:47:59;8.60;99.90
30473;DHT22;17263;48.160;11.452;2023-03-20T05:50:25;8.60;99.90
30473;DHT22;17263;48.160;11.452;2023-03-20T05:52:51;8.60;99.90
30473;DHT22;17263;48.160;11.452;2023-03-20T05:55:17;8.60;99.90
30473;DHT22;17263;48.160;11.452;2023-03-20T05:57:43;8.60;99.90
30473;DHT22;17263;48.160;11.452;2023-03-20T06:00:10;8.60;99.90
30473;DHT22;17263;48.160;11.452;2023-03-20T06:02:36;8.50;99.90
30473;DHT22;17263;48.160;11.452;2023-03-20T06:05:03;8.50;99.90
30473;DHT22;17263;48.160;11.452;2023-03-20T06:07:29;8.50;99.90
30473;DHT22;17263;48.160;11.452;2023-03-20T06:09:55;8.50;99.90
30473;DHT22;17263;48.160;11.452;2023-03-20T06:12:21;8.60;99.90
30473;DHT22;17263;48.160;11.452;2023-03-20T06:14:47;8.70;99.90
30473;DHT22;17263;48.160;11.452;2023-03-20T06:17:13;8.70;99.90
30473;DHT22;17263;48.160;11.452;2023-03-20T06:19:39;8.70;99.90
30473;DHT22;17263;48.160;11.452;2023-03-20T06:22:06;8.60;99.90
30473;DHT22;17263;48.160;11.452;2023-03-20T06:24:32;8.70;99.90
30473;DHT22;17263;48.160;11.452;2023-03-20T06:26:58;8.60;99.90
30473;DHT22;17263;48.160;11.452;2023-03-20T06:29:24;8.70;99.90
30473;DHT22;17263;48.160;11.452;2023-03-20T06:31:50;8.70;99.90
30473;DHT22;17263;48.160;11.452;2023-03-20T06:34:16;8.70;99.90
30473;DHT22;17263;48.160;11.452;2023-03-20T06:36:42;8.70;99.90
30473;DHT22;17263;48.160;11.452;2023-03-20T06:39:08;8.70;99.90
30473;DHT22;17263;48.160;11.452;2023-03-20T06:41:34;8.60;99.90
30473;DHT22;17263;48.160;11.452;2023-03-20T06:44:01;8.70;99.90
30473;DHT22;17263;48.160;11.452;2023-03-20T06:46:28;8.70;99.90
30473;DHT22;17263;48.160;11.452;2023-03-20T06:48:54;8.70;99.90
30473;DHT22;17263;48.160;11.452;2023-03-20T06:51:20;8.80;99.90
30473;DHT22;17263;48.160;11.452;2023-03-20T06:53:46;8.90;99.90
30473;DHT22;17263;48.160;11.452;2023-03-20T06:56:12;8.90;99.90
30473;DHT22;17263;48.160;11.452;2023-03-20T06:58:38;8.90;99.90
30473;DHT22;17263;48.160;11.452;2023-03-20T07:01:12;9.00;99.90
30473;DHT22;17263;48.160;11.452;2023-03-20T07:03:39;9.00;99.90
30473;DHT22;17263;48.160;11.452;2023-03-20T07:06:06;9.10;99.90
30473;DHT22;17263;48.160;11.452;2023-03-20T07:08:32;9.20;99.90
30473;DHT22;17263;48.160;11.452;2023-03-20T07:10:59;9.20;99.90
30473;DHT22;17263;48.160;11.452;2023-03-20T07:13:25;9.30;99.90
30473;DHT22;17263;48.160;11.452;2023-03-20T07:15:51;9.40;99.90
30473;DHT22;17263;48.160;11.452;2023-03-20T07:18:17;9.40;99.90
30473;DHT22;17263;48.160;11.452;2023-03-20T07:20:44;9.40;99.90
30473;DHT22;17263;48.160;11.452;2023-03-20T07:23:10;9.50;99.90
30473;DHT22;17263;48.160;11.452;2023-03-20T07:25:36;9.50;99.90
30473;DHT22;17263;48.160;11.452;2023-03-20T07:28:03;9.50;99.90
30473;DHT22;17263;48.160;11.452;2023-03-20T07:30:31;9.70;99.90
30473;DHT22;17263;48.160;11.452;2023-03-20T07:32:57;9.70;99.90
30473;DHT22;17263;48.160;11.452;2023-03-20T07:35:23;9.70;99.90
30473;DHT22;17263;48.160;11.452;2023-03-20T07:37:49;9.80;99.90
30473;DHT22;17263;48.160;11.452;2023-03-20T07:40:15;9.80;99.90
30473;DHT22;17263;48.160;11.452;2023-03-20T07:42:43;9.70;99.90
30473;DHT22;17263;48.160;11.452;2023-03-20T07:45:09;9.70;99.90
30473;DHT22;17263;48.160;11.452;2023-03-20T07:47:36;9.70;99.90
30473;DHT22;17263;48.160;11.452;2023-03-20T07:50:02;9.80;99.90
30473;DHT22;17263;48.160;11.452;2023-03-20T07:52:28;9.80;99.90
30473;DHT22;17263;48.160;11.452;2023-03-20T07:54:55;10.10;99.90
30473;DHT22;17263;48.160;11.452;2023-03-20T07:57:21;10.50;99.90
30473;DHT22;17263;48.160;11.452;2023-03-20T07:59:47;10.80;99.90
30473;DHT22;17263;48.160;11.452;2023-03-20T08:02:15;10.80;99.90
30473;DHT22;17263;48.160;11.452;2023-03-20T08:04:42;10.80;99.90
30473;DHT22;17263;48.160;11.452;2023-03-20T08:07:09;10.80;99.90
30473;DHT22;17263;48.160;11.452;2023-03-20T08:09:35;11.00;99.90
30473;DHT22;17263;48.160;11.452;2023-03-20T08:12:02;11.20;99.90
30473;DHT22;17263;48.160;11.452;2023-03-20T08:14:28;11.40;99.90
30473;DHT22;17263;48.160;11.452;2023-03-20T08:16:54;11.40;99.90
30473;DHT22;17263;48.160;11.452;2023-03-20T08:19:20;11.30;99.90
30473;DHT22;17263;48.160;11.452;2023-03-20T08:21:46;11.40;99.90
30473;DHT22;17263;48.160;11.452;2023-03-20T08:24:13;11.50;99.90
30473;DHT22;17263;48.160;11.452;2023-03-20T08:26:39;11.50;99.90
30473;DHT22;17263;48.160;11.452;2023-03-20T08:29:05;11.40;99.90
30473;DHT22;17263;48.160;11.452;2023-03-20T08:31:31;11.50;99.90
30473;DHT22;17263;48.160;11.452;2023-03-20T08:33:57;11.40;99.90
30473;DHT22;17263;48.160;11.452;2023-03-20T08:36:24;11.40;99.90
30473;DHT22;17263;48.160;11.452;2023-03-20T08:38:50;11.40;99.90
30473;DHT22;17263;48.160;11.452;2023-03-20T08:41:16;11.50;99.90
30473;DHT22;17263;48.160;11.452;2023-03-20T08:43:42;11.50;99.90
30473;DHT22;17263;48.160;11.452;2023-03-20T08:46:09;11.50;99.90
30473;DHT22;17263;48.160;11.452;2023-03-20T08:48:35;11.50;99.90
30473;DHT22;17263;48.160;11.452;2023-03-20T08:51:01;11.60;99.90
30473;DHT22;17263;48.160;11.452;2023-03-20T08:53:27;11.70;99.90
30473;DHT22;17263;48.160;11.452;2023-03-20T08:55:53;11.70;99.90
30473;DHT22;17263;48.160;11.452;2023-03-20T08:58:20;11.70;99.90
30473;DHT22;17263;48.160;11.452;2023-03-20T09:00:46;11.70;99.90
30473;DHT22;17263;48.160;11.452;2023-03-20T09:03:14;11.80;99.90
30473;DHT22;17263;48.160;11.452;2023-03-20T09:05:43;11.80;99.90
30473;DHT22;17263;48.160;11.452;2023-03-20T09:08:10;12.00;99.90
30473;DHT22;17263;48.160;11.452;2023-03-20T09:10:36;12.40;99.90
30473;DHT22;17263;48.160;11.452;2023-03-20T09:13:02;12.60;99.90
30473;DHT22;17263;48.160;11.452;2023-03-20T09:15:28;12.90;99.90
30473;DHT22;17263;48.160;11.452;2023-03-20T09:17:54;13.20;99.90
30473;DHT22;17263;48.160;11.452;2023-03-20T09:20:20;13.50;99.90
30473;DHT22;17263;48.160;11.452;2023-03-20T09:22:46;13.70;99.90
30473;DHT22;17263;48.160;11.452;2023-03-20T09:25:13;13.50;99.90
30473;DHT22;17263;48.160;11.452;2023-03-20T09:27:39;13.20;99.90
30473;DHT22;17263;48.160;11.452;2023-03-20T09:30:06;13.10;99.90
30473;DHT22;17263;48.160;11.452;2023-03-20T09:32:34;13.10;99.90
30473;DHT22;17263;48.160;11.452;2023-03-20T09:35:01;12.80;99.90
30473;DHT22;17263;48.160;11.452;2023-03-20T09:37:27;12.80;99.90
30473;DHT22;17263;48.160;11.452;2023-03-20T09:39:53;12.80;99.90
30473;DHT22;17263;48.160;11.452;2023-03-20T09:47:51;12.50;99.90
30473;DHT22;17263;48.160;11.452;2023-03-20T09:50:33;12.50;99.90
30473;DHT22;17263;48.160;11.452;2023-03-20T09:55:35;12.80;99.90
30473;DHT22;17263;48.160;11.452;2023-03-20T09:58:05;12.90;99.90
30473;DHT22;17263;48.160;11.452;2023-03-20T10:00:35;12.90;99.90
30473;DHT22;17263;48.160;11.452;2023-03-20T10:03:04;12.90;99.90
30473;DHT22;17263;48.160;11.452;2023-03-20T10:08:22;13.20;99.90
30473;DHT22;17263;48.160;11.452;2023-03-20T10:10:51;13.20;99.90
30473;DHT22;17263;48.160;11.452;2023-03-20T10:18:38;12.80;99.90
30473;DHT22;17263;48.160;11.452;2023-03-20T10:21:18;12.70;99.90
30473;DHT22;17263;48.160;11.452;2023-03-20T10:23:55;12.70;99.90
30473;DHT22;17263;48.160;11.452;2023-03-20T10:26:26;12.50;99.90
30473;DHT22;17263;48.160;11.452;2023-03-20T10:28:56;12.60;99.90
30473;DHT22;17263;48.160;11.452;2023-03-20T10:31:42;12.60;99.90
30473;DHT22;17263;48.160;11.452;2023-03-20T10:42:28;12.90;99.90
30473;DHT22;17263;48.160;11.452;2023-03-20T10:45:03;13.10;99.90
30473;DHT22;17263;48.160;11.452;2023-03-20T10:47:35;13.30;99.90
30473;DHT22;17263;48.160;11.452;2023-03-20T10:50:10;13.20;99.90
30473;DHT22;17263;48.160;11.452;2023-03-20T10:52:40;13.30;99.90
30473;DHT22;17263;48.160;11.452;2023-03-20T10:55:11;13.50;99.90
30473;DHT22;17263;48.160;11.452;2023-03-20T10:57:45;13.40;99.90
30473;DHT22;17263;48.160;11.452;2023-03-20T11:00:17;13.30;99.90
30473;DHT22;17263;48.160;11.452;2023-03-20T11:02:44;13.30;99.90
30473;DHT22;17263;48.160;11.452;2023-03-20T11:05:33;13.20;99.90
30473;DHT22;17263;48.160;11.452;2023-03-20T11:08:06;13.30;99.90
30473;DHT22;17263;48.160;11.452;2023-03-20T11:10:35;13.30;99.90
30473;DHT22;17263;48.160;11.452;2023-03-20T11:15:46;13.00;99.90
30473;DHT22;17263;48.160;11.452;2023-03-20T11:18:14;13.00;99.90
30473;DHT22;17263;48.160;11.452;2023-03-20T11:20:53;13.00;99.90
30473;DHT22;17263;48.160;11.452;2023-03-20T11:23:24;13.00;99.90
30473;DHT22;17263;48.160;11.452;2023-03-20T11:25:51;13.10;99.90
30473;DHT22;17263;48.160;11.452;2023-03-20T11:28:25;13.20;99.90
30473;DHT22;17263;48.160;11.452;2023-03-20T11:31:04;13.40;99.90
30473;DHT22;17263;48.160;11.452;2023-03-20T11:33:35;13.60;99.90
30473;DHT22;17263;48.160;11.452;2023-03-20T11:36:10;13.80;99.90
30473;DHT22;17263;48.160;11.452;2023-03-20T11:38:42;14.00;99.90
30473;DHT22;17263;48.160;11.452;2023-03-20T11:41:26;13.90;99.90
30473;DHT22;17263;48.160;11.452;2023-03-20T11:43:53;13.80;99.90
30473;DHT22;17263;48.160;11.452;2023-03-20T11:46:21;13.60;99.90
30473;DHT22;17263;48.160;11.452;2023-03-20T11:49:16;13.50;99.90
30473;DHT22;17263;48.160;11.452;2023-03-20T11:51:44;13.30;99.90
30473;DHT22;17263;48.160;11.452;2023-03-20T11:54:16;13.20;99.90
30473;DHT22;17263;48.160;11.452;2023-03-20T11:56:57;13.30;99.90
30473;DHT22;17263;48.160;11.452;2023-03-20T11:59:32;13.60;99.90
30473;DHT22;17263;48.160;11.452;2023-03-20T12:02:03;13.70;99.90
30473;DHT22;17263;48.160;11.452;2023-03-20T12:04:34;13.70;99.90
30473;DHT22;17263;48.160;11.452;2023-03-20T12:07:15;13.70;99.90
30473;DHT22;17263;48.160;11.452;2023-03-20T12:10:04;13.50;99.90
30473;DHT22;17263;48.160;11.452;2023-03-20T12:15:35;13.40;99.90
30473;DHT22;17263;48.160;11.452;2023-03-20T12:23:34;13.50;99.90
30473;DHT22;17263;48.160;11.452;2023-03-20T12:26:14;13.50;99.90
30473;DHT22;17263;48.160;11.452;2023-03-20T12:34:25;13.30;99.90
30473;DHT22;17263;48.160;11.452;2023-03-20T12:36:54;13.20;99.90
30473;DHT22;17263;48.160;11.452;2023-03-20T12:39:31;13.10;99.90
30473;DHT22;17263;48.160;11.452;2023-03-20T12:45:09;13.10;99.90
30473;DHT22;17263;48.160;11.452;2023-03-20T13:01:21;13.10;99.90
30473;DHT22;17263;48.160;11.452;2023-03-20T13:04:13;13.10;99.90
30473;DHT22;17263;48.160;11.452;2023-03-20T13:12:32;13.40;99.90
30473;DHT22;17263;48.160;11.452;2023-03-20T13:20:23;13.50;99.90
30473;DHT22;17263;48.160;11.452;2023-03-20T13:30:58;13.80;99.90
30473;DHT22;17263;48.160;11.452;2023-03-20T13:38:45;14.20;99.90
30473;DHT22;17263;48.160;11.452;2023-03-20T13:41:13;14.30;99.90
30473;DHT22;17263;48.160;11.452;2023-03-20T13:43:50;14.30;99.90
30473;DHT22;17263;48.160;11.452;2023-03-20T13:46:23;14.20;99.90
30473;DHT22;17263;48.160;11.452;2023-03-20T13:48:51;14.10;99.90
30473;DHT22;17263;48.160;11.452;2023-03-20T13:56:52;14.00;99.90
30473;DHT22;17263;48.160;11.452;2023-03-20T14:02:32;14.10;99.90
30473;DHT22;17263;48.160;11.452;2023-03-20T14:07:36;14.00;99.90
30473;DHT22;17263;48.160;11.452;2023-03-20T14:10:33;13.90;99.90
30473;DHT22;17263;48.160;11.452;2023-03-20T14:13:03;13.90;99.90
30473;DHT22;17263;48.160;11.452;2023-03-20T14:15:34;13.90;99.90
30473;DHT22;17263;48.160;11.452;2023-03-20T14:18:06;13.80;99.90
30473;DHT22;17263;48.160;11.452;2023-03-20T14:20:36;13.60;99.90
30473;DHT22;17263;48.160;11.452;2023-03-20T14:23:02;13.50;99.90
30473;DHT22;17263;48.160;11.452;2023-03-20T14:25:35;13.50;99.90
30473;DHT22;17263;48.160;11.452;2023-03-20T14:28:08;13.50;99.90
30473;DHT22;17263;48.160;11.452;2023-03-20T14:30:48;13.50;99.90
30473;DHT22;17263;48.160;11.452;2023-03-20T14:35:51;13.40;99.90
30473;DHT22;17263;48.160;11.452;2023-03-20T14:38:48;13.50;99.90
30473;DHT22;17263;48.160;11.452;2023-03-20T14:47:01;13.60;99.90
30473;DHT22;17263;48.160;11.452;2023-03-20T14:49:36;13.70;99.90
30473;DHT22;17263;48.160;11.452;2023-03-20T14:52:34;13.80;99.90
30473;DHT22;17263;48.160;11.452;2023-03-20T14:55:27;13.90;99.90
30473;DHT22;17263;48.160;11.452;2023-03-20T14:58:05;13.90;99.90
30473;DHT22;17263;48.160;11.452;2023-03-20T15:00:48;13.90;99.90
30473;DHT22;17263;48.160;11.452;2023-03-20T15:03:16;13.80;99.90
30473;DHT22;17263;48.160;11.452;2023-03-20T15:05:42;13.80;99.90
30473;DHT22;17263;48.160;11.452;2023-03-20T15:08:21;13.70;99.90
30473;DHT22;17263;48.160;11.452;2023-03-20T15:10:58;13.60;99.90
30473;DHT22;17263;48.160;11.452;2023-03-20T15:13:26;13.70;99.90
30473;DHT22;17263;48.160;11.452;2023-03-20T15:15:58;13.80;99.90
30473;DHT22;17263;48.160;11.452;2023-03-20T15:18:27;13.70;99.90
30473;DHT22;17263;48.160;11.452;2023-03-20T15:20:56;13.70;99.90
30473;DHT22;17263;48.160;11.452;2023-03-20T15:23:23;13.60;99.90
30473;DHT22;17263;48.160;11.452;2023-03-20T15:25:50;13.50;99.90
30473;DHT22;17263;48.160;11.452;2023-03-20T15:28:23;13.50;99.90
30473;DHT22;17263;48.160;11.452;2023-03-20T15:30:50;13.50;99.90
30473;DHT22;17263;48.160;11.452;2023-03-20T15:33:31;13.50;99.90
30473;DHT22;17263;48.160;11.452;2023-03-20T15:36:05;13.60;99.90
30473;DHT22;17263;48.160;11.452;2023-03-20T15:38:33;13.70;99.90
30473;DHT22;17263;48.160;11.452;2023-03-20T15:41:03;13.60;99.90
30473;DHT22;17263;48.160;11.452;2023-03-20T15:43:31;13.40;99.90
30473;DHT22;17263;48.160;11.452;2023-03-20T15:46:00;13.30;99.90
30473;DHT22;17263;48.160;11.452;2023-03-20T15:48:28;13.20;99.90
30473;DHT22;17263;48.160;11.452;2023-03-20T15:50:57;13.10;99.90
30473;DHT22;17263;48.160;11.452;2023-03-20T15:53:31;13.10;99.90
30473;DHT22;17263;48.160;11.452;2023-03-20T15:56:06;13.10;99.90
30473;DHT22;17263;48.160;11.452;2023-03-20T15:58:33;12.90;99.90
30473;DHT22;17263;48.160;11.452;2023-03-20T16:01:01;12.90;99.90
30473;DHT22;17263;48.160;11.452;2023-03-20T16:03:28;12.80;99.90
30473;DHT22;17263;48.160;11.452;2023-03-20T16:05:58;12.70;99.90
30473;DHT22;17263;48.160;11.452;2023-03-20T16:08:31;12.60;99.90
30473;DHT22;17263;48.160;11.452;2023-03-20T16:11:04;12.60;99.90
30473;DHT22;17263;48.160;11.452;2023-03-20T16:13:44;12.60;99.90
30473;DHT22;17263;48.160;11.452;2023-03-20T16:16:16;12.50;99.90
30473;DHT22;17263;48.160;11.452;2023-03-20T16:18:44;12.50;99.90
30473;DHT22;17263;48.160;11.452;2023-03-20T16:21:27;12.40;99.90
30473;DHT22;17263;48.160;11.452;2023-03-20T16:23:57;12.30;99.90
30473;DHT22;17263;48.160;11.452;2023-03-20T16:26:25;12.20;99.90
30473;DHT22;17263;48.160;11.452;2023-03-20T16:28:54;12.10;99.90
30473;DHT22;17263;48.160;11.452;2023-03-20T16:31:25;12.00;99.90
30473;DHT22;17263;48.160;11.452;2023-03-20T16:33:52;11.90;99.90
30473;DHT22;17263;48.160;11.452;2023-03-20T16:36:30;11.80;99.90
30473;DHT22;17263;48.160;11.452;2023-03-20T16:41:32;11.70;99.90
30473;DHT22;17263;48.160;11.452;2023-03-20T16:44:02;11.60;99.90
30473;DHT22;17263;48.160;11.452;2023-03-20T16:46:29;11.60;99.90
30473;DHT22;17263;48.160;11.452;2023-03-20T16:48:57;11.50;99.90
30473;DHT22;17263;48.160;11.452;2023-03-20T16:51:32;11.60;99.90
30473;DHT22;17263;48.160;11.452;2023-03-20T16:53:59;11.70;99.90
30473;DHT22;17263;48.160;11.452;2023-03-20T16:56:33;11.70;99.90
30473;DHT22;17263;48.160;11.452;2023-03-20T16:59:13;11.50;99.90
30473;DHT22;17263;48.160;11.452;2023-03-20T17:01:43;11.40;99.90
30473;DHT22;17263;48.160;11.452;2023-03-20T17:04:54;11.30;99.90
30473;DHT22;17263;48.160;11.452;2023-03-20T17:07:15;11.20;99.90
30473;DHT22;17263;48.160;11.452;2023-03-20T17:12:42;11.00;99.90
30473;DHT22;17263;48.160;11.452;2023-03-20T17:15:17;11.00;99.90
30473;DHT22;17263;48.160;11.452;2023-03-20T17:17:44;11.00;99.90
30473;DHT22;17263;48.160;11.452;2023-03-20T17:20:20;10.80;99.90
30473;DHT22;17263;48.160;11.452;2023-03-20T17:22:47;10.80;99.90
30473;DHT22;17263;48.160;11.452;2023-03-20T17:25:13;10.70;99.90
30473;DHT22;17263;48.160;11.452;2023-03-20T17:27:39;10.60;99.90
30473;DHT22;17263;48.160;11.452;2023-03-20T17:30:19;10.50;99.90
30473;DHT22;17263;48.160;11.452;2023-03-20T17:32:45;10.50;99.90
30473;DHT22;17263;48.160;11.452;2023-03-20T17:35:12;10.40;99.90
30473;DHT22;17263;48.160;11.452;2023-03-20T17:37:38;10.30;99.90
30473;DHT22;17263;48.160;11.452;2023-03-20T17:40:04;10.30;99.90
30473;DHT22;17263;48.160;11.452;2023-03-20T17:42:31;10.20;99.90
30473;DHT22;17263;48.160;11.452;2023-03-20T17:44:59;10.10;99.90
30473;DHT22;17263;48.160;11.452;2023-03-20T17:47:27;10.00;99.90
30473;DHT22;17263;48.160;11.452;2023-03-20T17:49:53;10.00;99.90
30473;DHT22;17263;48.160;11.452;2023-03-20T17:52:21;9.90;99.90
30473;DHT22;17263;48.160;11.452;2023-03-20T17:54:48;9.80;99.90
30473;DHT22;17263;48.160;11.452;2023-03-20T17:59:46;9.70;99.90
30473;DHT22;17263;48.160;11.452;2023-03-20T18:02:15;9.70;99.90
30473;DHT22;17263;48.160;11.452;2023-03-20T18:04:46;9.60;99.90
30473;DHT22;17263;48.160;11.452;2023-03-20T18:07:12;9.50;99.90
30473;DHT22;17263;48.160;11.452;2023-03-20T18:09:39;9.50;99.90
30473;DHT22;17263;48.160;11.452;2023-03-20T18:12:09;9.40;99.90
30473;DHT22;17263;48.160;11.452;2023-03-20T18:14:36;9.40;99.90